Air Quality Table

TIMESTAMP NO2 O3 PM2.5 TEMP HUM AIRPRES WS WD NO
2023-06-04 15:00 4.53 µg/m3 73.86 µg/m3 7.93 µg/m3 °C % mbar m/s Deg 0.84 µg/m3
2023-06-04 14:00 4.05 µg/m3 77.47 µg/m3 7.42 µg/m3 °C % mbar m/s Deg 0.93 µg/m3
2023-06-04 13:00 4.39 µg/m3 76.21 µg/m3 7.76 µg/m3 °C % mbar m/s Deg 0.97 µg/m3
2023-06-04 12:00 5.59 µg/m3 76.07 µg/m3 10.39 µg/m3 °C % mbar m/s Deg 1.39 µg/m3
2023-06-04 11:00 8.89 µg/m3 74.39 µg/m3 6.4 µg/m3 °C % mbar m/s Deg 2.31 µg/m3
2023-06-04 10:00 4.33 µg/m3 77.4 µg/m3 12.01 µg/m3 °C % mbar m/s Deg 1.12 µg/m3
2023-06-04 09:00 6.31 µg/m3 74.3 µg/m3 8.44 µg/m3 °C % mbar m/s Deg 1.41 µg/m3
2023-06-04 08:00 13.58 µg/m3 64.61 µg/m3 10.06 µg/m3 °C % mbar m/s Deg 2.69 µg/m3
2023-06-04 07:00 18.53 µg/m3 57.17 µg/m3 13.62 µg/m3 °C % mbar m/s Deg 2.45 µg/m3
2023-06-04 06:00 32.66 µg/m3 32.02 µg/m3 12.86 µg/m3 °C % mbar m/s Deg 3.22 µg/m3
2023-06-04 05:00 25.74 µg/m3 24.36 µg/m3 14.72 µg/m3 °C % mbar m/s Deg 1 µg/m3
2023-06-04 04:00 25.02 µg/m3 26.9 µg/m3 15.66 µg/m3 °C % mbar m/s Deg 0.34 µg/m3
2023-06-04 03:00 29.61 µg/m3 21.39 µg/m3 25.59 µg/m3 °C % mbar m/s Deg 0.4 µg/m3
2023-06-04 02:00 19.07 µg/m3 35.01 µg/m3 33.57 µg/m3 °C % mbar m/s Deg 0.42 µg/m3
2023-06-04 01:00 22.61 µg/m3 34.71 µg/m3 14.81 µg/m3 °C % mbar m/s Deg 0.46 µg/m3
2023-06-04 00:00 19.09 µg/m3 50.43 µg/m3 9.29 µg/m3 °C % mbar m/s Deg 0.46 µg/m3
2023-06-03 23:00 8.08 µg/m3 72.62 µg/m3 9.38 µg/m3 °C % mbar m/s Deg 0.2 µg/m3
2023-06-03 22:00 7.82 µg/m3 71.72 µg/m3 7.59 µg/m3 °C % mbar m/s Deg 0.21 µg/m3
2023-06-03 21:00 4.95 µg/m3 75.54 µg/m3 5.56 µg/m3 °C % mbar m/s Deg 0.21 µg/m3
2023-06-03 20:00 6.28 µg/m3 75.44 µg/m3 6.57 µg/m3 °C % mbar m/s Deg 0.2 µg/m3
2023-06-03 19:00 6.44 µg/m3 74.9 µg/m3 7.42 µg/m3 °C % mbar m/s Deg 0.37 µg/m3
2023-06-03 18:00 4.61 µg/m3 73.96 µg/m3 7.42 µg/m3 °C % mbar m/s Deg 0.56 µg/m3
2023-06-03 17:00 3.98 µg/m3 76.06 µg/m3 6.4 µg/m3 °C % mbar m/s Deg 0.63 µg/m3
2023-06-03 16:00 4.33 µg/m3 76.5 µg/m3 8.27 µg/m3 °C % mbar m/s Deg 0.76 µg/m3
2023-06-03 15:00 3.77 µg/m3 78.81 µg/m3 7 µg/m3 °C % mbar m/s Deg 0.44 µg/m3
2023-06-03 14:00 3.93 µg/m3 84.27 µg/m3 9.04 µg/m3 °C % mbar m/s Deg 0.47 µg/m3
2023-06-03 13:00 5.53 µg/m3 86.76 µg/m3 13.2 µg/m3 °C % mbar m/s Deg 0.69 µg/m3
2023-06-03 12:00 5.46 µg/m3 79.01 µg/m3 12.94 µg/m3 °C % mbar m/s Deg 1.33 µg/m3
2023-06-03 11:00 6.26 µg/m3 76.34 µg/m3 15.32 µg/m3 °C % mbar m/s Deg 2.31 µg/m3
2023-06-03 10:00 4.5 µg/m3 79.8 µg/m3 11.92 µg/m3 °C % mbar m/s Deg 0.99 µg/m3
2023-06-03 09:00 6.01 µg/m3 79.36 µg/m3 10.14 µg/m3 °C % mbar m/s Deg 1.59 µg/m3
2023-06-03 08:00 10.89 µg/m3 74.31 µg/m3 18.29 µg/m3 °C % mbar m/s Deg 2.94 µg/m3
2023-06-03 07:00 24.8 µg/m3 53.61 µg/m3 15.32 µg/m3 °C % mbar m/s Deg 7.21 µg/m3
2023-06-03 06:00 48.21 µg/m3 12.96 µg/m3 9.38 µg/m3 °C % mbar m/s Deg 13.36 µg/m3
2023-06-03 05:00 34.57 µg/m3 25.04 µg/m3 10.14 µg/m3 °C % mbar m/s Deg 1.45 µg/m3
2023-06-03 04:00 36.07 µg/m3 17.04 µg/m3 8.27 µg/m3 °C % mbar m/s Deg 2.65 µg/m3
2023-06-03 03:00 30.01 µg/m3 15.71 µg/m3 8.36 µg/m3 °C % mbar m/s Deg 0.52 µg/m3
2023-06-03 02:00 20.29 µg/m3 35.55 µg/m3 8.36 µg/m3 °C % mbar m/s Deg 0.49 µg/m3
2023-06-03 01:00 28.14 µg/m3 31.76 µg/m3 9.63 µg/m3 °C % mbar m/s Deg 0.69 µg/m3
2023-06-03 00:00 33.65 µg/m3 28.34 µg/m3 7.34 µg/m3 °C % mbar m/s Deg 2.13 µg/m3
2023-06-02 23:00 20.86 µg/m3 49.82 µg/m3 11.33 µg/m3 °C % mbar m/s Deg 0.75 µg/m3
2023-06-02 22:00 23.41 µg/m3 46.28 µg/m3 7.25 µg/m3 °C % mbar m/s Deg 0.42 µg/m3
2023-06-02 21:00 15.49 µg/m3 58.86 µg/m3 8.02 µg/m3 °C % mbar m/s Deg 0.35 µg/m3
2023-06-02 20:00 9.46 µg/m3 71.45 µg/m3 6.91 µg/m3 °C % mbar m/s Deg 0.3 µg/m3
2023-06-02 19:00 10.41 µg/m3 72.6 µg/m3 10.39 µg/m3 °C % mbar m/s Deg 0.76 µg/m3
2023-06-02 18:00 6.76 µg/m3 79.17 µg/m3 16 µg/m3 °C % mbar m/s Deg 1.78 µg/m3
2023-06-02 17:00 11.1 µg/m3 76.61 µg/m3 14.3 µg/m3 °C % mbar m/s Deg 5.18 µg/m3

It is to be noted that the data is provisional and subject to quality assurance procedures. For validated data kindly refer your request to contact.air@era.org.mt